createdAt,value
2018-03-15T00:00:10.587Z,100366.16
2018-03-15T00:02:48.189Z,100356.73
2018-03-15T00:05:23.036Z,100349.72
2018-03-15T00:07:58.187Z,100348.19
2018-03-15T00:10:33.325Z,100344.45
2018-03-15T00:13:08.411Z,100342.23
2018-03-15T00:15:43.814Z,100338.83
2018-03-15T00:18:18.964Z,100345.22
2018-03-15T00:20:54.185Z,100344.38
2018-03-15T00:23:30.052Z,100340.90
2018-03-15T00:26:05.063Z,100341.18
2018-03-15T00:28:40.297Z,100332.58
2018-03-15T00:31:15.322Z,100325.73
2018-03-15T00:33:50.249Z,100326.92
2018-03-15T00:36:25.012Z,100328.83
2018-03-15T00:38:59.805Z,100320.95
2018-03-15T00:41:34.239Z,100329.41
2018-03-15T00:44:09.303Z,100316.05
2018-03-15T00:46:44.344Z,100324.65
2018-03-15T00:49:19.479Z,100319.88
2018-03-15T00:51:55.071Z,100332.22
2018-03-15T00:54:30.333Z,100328.91
2018-03-15T00:57:04.531Z,100327.72
2018-03-15T00:59:40.253Z,100329.84
2018-03-15T01:02:14.832Z,100322.85
2018-03-15T01:04:50.028Z,100319.22
2018-03-15T01:07:25.137Z,100310.20
2018-03-15T01:10:00.269Z,100297.06
2018-03-15T01:12:35.527Z,100299.02
2018-03-15T01:15:10.162Z,100297.57
2018-03-15T01:17:45.300Z,100293.00
2018-03-15T01:20:20.201Z,100291.02
2018-03-15T01:22:55.183Z,100292.30
2018-03-15T01:25:30.454Z,100290.64
2018-03-15T01:28:05.428Z,100283.61
2018-03-15T01:30:40.450Z,100278.75
2018-03-15T01:33:16.132Z,100279.72
2018-03-15T01:35:51.092Z,100259.45
2018-03-15T01:38:26.298Z,100253.75
2018-03-15T01:41:01.219Z,100256.31
2018-03-15T01:43:36.581Z,100257.64
2018-03-15T01:46:12.111Z,100253.41
2018-03-15T01:48:47.184Z,100249.31
2018-03-15T01:51:22.155Z,100244.94
2018-03-15T01:53:56.471Z,100248.46
2018-03-15T01:56:31.875Z,100238.88
2018-03-15T01:59:07.113Z,100226.75
2018-03-15T02:01:42.322Z,100245.16
2018-03-15T02:04:17.324Z,100240.73
2018-03-15T02:06:52.379Z,100239.47
2018-03-15T02:09:28.551Z,100235.92
2018-03-15T02:12:03.838Z,100230.57
2018-03-15T02:14:39.187Z,100220.60
2018-03-15T02:17:13.815Z,100215.82
2018-03-15T02:19:49.222Z,100211.50
2018-03-15T02:22:24.296Z,100200.38
2018-03-15T02:24:59.551Z,100201.95
2018-03-15T02:27:34.497Z,100195.16
2018-03-15T02:30:09.238Z,100191.77
2018-03-15T02:32:44.358Z,100193.68
2018-03-15T02:35:19.578Z,100190.52
2018-03-15T02:37:54.820Z,100188.64
2018-03-15T02:40:29.610Z,100190.08
2018-03-15T02:43:04.317Z,100192.08
2018-03-15T02:45:39.751Z,100196.02
2018-03-15T02:48:14.794Z,100196.11
2018-03-15T02:50:49.320Z,100195.45
2018-03-15T02:53:24.769Z,100200.33
2018-03-15T02:55:59.698Z,100200.82
2018-03-15T02:58:34.817Z,100201.72
2018-03-15T03:01:09.371Z,100202.12
2018-03-15T03:03:44.592Z,100197.90
2018-03-15T03:06:19.208Z,100208.09
2018-03-15T03:08:54.309Z,100212.14
2018-03-15T03:11:29.986Z,100203.45
2018-03-15T03:14:06.590Z,100209.14
2018-03-15T03:16:41.663Z,100204.06
2018-03-15T03:19:16.700Z,100204.89
2018-03-15T03:21:51.835Z,100206.29
2018-03-15T03:24:28.722Z,100214.72
2018-03-15T03:27:03.352Z,100209.19
2018-03-15T03:29:38.615Z,100215.39
2018-03-15T03:32:13.573Z,100216.13
2018-03-15T03:34:48.573Z,100226.70
2018-03-15T03:37:22.923Z,100215.73
2018-03-15T03:39:58.102Z,100220.56
2018-03-15T03:42:32.855Z,100218.56
2018-03-15T03:45:07.081Z,100224.80
2018-03-15T03:47:41.949Z,100231.92
2018-03-15T03:50:16.982Z,100232.41
2018-03-15T03:52:51.580Z,100221.59
2018-03-15T03:55:26.715Z,100220.66
2018-03-15T03:58:01.603Z,100219.06
2018-03-15T04:00:36.754Z,100217.81
2018-03-15T04:03:12.471Z,100215.34
2018-03-15T04:05:47.439Z,100215.36
2018-03-15T04:08:22.587Z,100205.86
2018-03-15T04:10:57.570Z,100201.48
2018-03-15T04:13:32.823Z,100197.95
2018-03-15T04:16:07.758Z,100200.64
2018-03-15T04:18:42.936Z,100205.42
2018-03-15T04:21:17.684Z,100198.30
2018-03-15T04:23:52.643Z,100202.13
2018-03-15T04:26:28.828Z,100204.34
2018-03-15T04:29:03.929Z,100201.25
2018-03-15T04:31:38.845Z,100212.76
2018-03-15T04:34:13.780Z,100204.14
2018-03-15T04:36:48.925Z,100196.78
2018-03-15T04:39:23.861Z,100191.65
2018-03-15T04:41:58.993Z,100189.48
2018-03-15T04:44:33.821Z,100186.55
2018-03-15T04:47:08.688Z,100176.20
2018-03-15T04:49:43.912Z,100167.78
2018-03-15T04:52:19.035Z,100165.48
2018-03-15T04:54:54.123Z,100159.05
2018-03-15T04:57:29.564Z,100155.95
2018-03-15T05:00:04.041Z,100151.51
2018-03-15T05:02:39.203Z,100143.88
2018-03-15T05:05:14.717Z,100133.49
2018-03-15T05:07:49.159Z,100133.59
2018-03-15T05:10:23.692Z,100133.94
2018-03-15T05:12:58.916Z,100140.17
2018-03-15T05:15:34.070Z,100128.53
2018-03-15T05:18:09.505Z,100134.00
2018-03-15T05:20:44.860Z,100124.63
2018-03-15T05:23:19.259Z,100125.70
2018-03-15T05:25:54.684Z,100134.69
2018-03-15T05:28:30.030Z,100128.01
2018-03-15T05:31:05.208Z,100122.25
2018-03-15T05:33:39.851Z,100133.80
2018-03-15T05:36:14.700Z,100133.87
2018-03-15T05:38:49.684Z,100141.00
2018-03-15T05:41:24.819Z,100138.39
2018-03-15T05:43:59.850Z,100137.70
2018-03-15T05:46:34.193Z,100134.96
2018-03-15T05:49:08.789Z,100121.80
2018-03-15T05:51:44.155Z,100116.48
2018-03-15T05:54:19.741Z,100119.58
2018-03-15T05:56:54.775Z,100117.03
2018-03-15T05:59:29.978Z,100119.00
2018-03-15T06:02:04.708Z,100109.81
2018-03-15T06:04:40.295Z,100111.05
2018-03-15T06:07:15.627Z,100114.98
2018-03-15T06:09:50.658Z,100099.41
2018-03-15T06:12:25.782Z,100094.16
2018-03-15T06:15:00.818Z,100105.42
2018-03-15T06:17:36.345Z,100091.34
2018-03-15T06:20:10.912Z,100096.08
2018-03-15T06:22:45.988Z,100091.16
2018-03-15T06:25:21.243Z,100091.27
2018-03-15T06:27:55.854Z,100083.55
2018-03-15T06:30:30.985Z,100078.88
2018-03-15T06:33:05.815Z,100069.23
2018-03-15T06:35:40.981Z,100059.45
2018-03-15T06:38:16.199Z,100063.57
2018-03-15T06:40:51.185Z,100059.10
2018-03-15T06:43:26.226Z,100070.20
2018-03-15T06:46:01.306Z,100062.42
2018-03-15T06:48:36.379Z,100055.56
2018-03-15T06:51:11.872Z,100059.34
2018-03-15T06:53:47.127Z,100052.34
2018-03-15T06:56:21.860Z,100046.95
2018-03-15T06:58:56.972Z,100044.36
2018-03-15T07:01:32.262Z,100047.60
2018-03-15T07:04:08.947Z,100041.92
2018-03-15T07:06:43.775Z,100038.39
2018-03-15T07:09:18.995Z,100029.73
2018-03-15T07:11:54.727Z,100033.95
2018-03-15T07:14:29.926Z,100024.11
2018-03-15T07:17:04.774Z,100031.81
2018-03-15T07:19:40.213Z,100032.25
2018-03-15T07:22:15.135Z,100045.52
2018-03-15T07:24:50.473Z,100028.47
2018-03-15T07:27:25.405Z,100024.11
2018-03-15T07:30:00.951Z,100037.07
2018-03-15T07:32:36.095Z,100048.28
2018-03-15T07:35:11.084Z,100070.27
2018-03-15T07:37:45.903Z,100043.92
2018-03-15T07:40:21.065Z,100054.12
2018-03-15T07:42:56.028Z,100049.92
2018-03-15T07:45:31.156Z,100052.69
2018-03-15T07:48:05.993Z,100060.61
2018-03-15T07:50:41.332Z,100043.86
2018-03-15T07:53:16.117Z,100045.81
2018-03-15T07:55:51.096Z,100046.47
2018-03-15T07:58:26.083Z,100047.11
2018-03-15T08:01:00.439Z,100044.11
2018-03-15T08:03:35.500Z,100043.56
2018-03-15T08:06:11.040Z,100038.11
2018-03-15T08:08:46.364Z,100028.98
2018-03-15T08:11:21.406Z,100015.30
2018-03-15T08:13:56.020Z,100032.88
2018-03-15T08:16:31.362Z,100028.19
2018-03-15T08:19:06.255Z,100038.17
2018-03-15T08:21:41.324Z,100025.28
2018-03-15T08:24:16.393Z,100007.45
2018-03-15T08:26:51.515Z,100022.77
2018-03-15T08:29:26.456Z,99998.75
2018-03-15T08:32:01.484Z,99988.59
2018-03-15T08:34:36.416Z,99983.48
2018-03-15T08:37:11.453Z,99969.13
2018-03-15T08:39:46.983Z,99978.83
2018-03-15T08:42:22.024Z,99957.66
2018-03-15T08:44:56.560Z,99947.52
2018-03-15T08:47:31.508Z,99951.53
2018-03-15T08:50:05.815Z,99954.30
2018-03-15T08:52:41.027Z,99961.61
2018-03-15T08:55:16.198Z,99949.91
2018-03-15T08:57:51.183Z,99948.20
2018-03-15T09:00:26.634Z,99952.21
2018-03-15T09:03:01.138Z,99946.08
2018-03-15T09:05:36.372Z,99952.85
2018-03-15T09:08:11.266Z,99949.11
2018-03-15T09:10:46.395Z,99959.66
2018-03-15T09:13:21.246Z,99960.83
2018-03-15T09:15:55.904Z,99956.00
2018-03-15T09:18:31.001Z,99943.03
2018-03-15T09:21:06.224Z,99948.48
2018-03-15T09:23:41.510Z,99953.28
2018-03-15T09:26:16.310Z,99957.08
2018-03-15T09:28:51.767Z,99941.94
2018-03-15T09:31:26.285Z,99934.40
2018-03-15T09:34:01.352Z,99941.61
2018-03-15T09:36:36.479Z,99942.19
2018-03-15T09:39:11.405Z,99926.36
2018-03-15T09:41:47.069Z,99932.58
2018-03-15T09:44:22.037Z,99924.80
2018-03-15T09:46:57.010Z,99938.39
2018-03-15T09:49:32.261Z,99899.89
2018-03-15T09:52:07.296Z,99938.89
2018-03-15T09:54:42.531Z,99930.78
2018-03-15T09:57:17.288Z,99927.41
2018-03-15T09:59:52.288Z,99935.17
2018-03-15T10:02:27.382Z,99924.42
2018-03-15T10:05:02.374Z,99924.84
2018-03-15T10:07:37.638Z,99917.52
2018-03-15T10:10:13.200Z,99911.83
2018-03-15T10:12:48.339Z,99909.14
2018-03-15T10:15:23.394Z,99903.70
2018-03-15T10:17:58.327Z,99893.51
2018-03-15T10:20:33.551Z,99895.86
2018-03-15T10:23:08.686Z,99898.06
2018-03-15T10:25:44.614Z,99899.94
2018-03-15T10:28:19.411Z,99911.83
2018-03-15T10:30:54.449Z,99889.72
2018-03-15T10:33:35.167Z,99899.61
2018-03-15T10:36:10.436Z,99889.37
2018-03-15T10:38:45.988Z,99882.84
2018-03-15T10:41:21.327Z,99873.67
2018-03-15T10:43:56.452Z,99884.04
2018-03-15T10:46:31.612Z,99872.24
2018-03-15T10:49:06.776Z,99868.27
2018-03-15T10:51:41.922Z,99865.19
2018-03-15T10:54:17.389Z,99857.41
2018-03-15T10:56:52.564Z,99848.86
2018-03-15T10:59:27.614Z,99839.19
2018-03-15T11:02:06.538Z,99835.31
2018-03-15T11:04:47.079Z,99838.48
2018-03-15T11:07:27.797Z,99839.52
2018-03-15T11:10:03.454Z,99825.91
2018-03-15T11:12:38.642Z,99817.23
2018-03-15T11:15:13.901Z,99822.02
2018-03-15T11:17:49.419Z,99815.74
2018-03-15T11:20:24.558Z,99817.23
2018-03-15T11:22:59.539Z,99809.57
2018-03-15T11:25:34.801Z,99817.23
2018-03-15T11:28:09.763Z,99820.76
2018-03-15T11:30:45.389Z,99801.67
2018-03-15T11:33:20.504Z,99807.87
2018-03-15T11:35:55.642Z,99785.56
2018-03-15T11:38:30.750Z,99793.89
2018-03-15T11:41:05.426Z,99784.75
2018-03-15T11:43:41.035Z,99796.20
2018-03-15T11:46:16.247Z,99791.86
2018-03-15T11:48:51.595Z,99778.74
2018-03-15T11:51:26.772Z,99773.37
2018-03-15T11:54:01.842Z,99769.22
2018-03-15T11:56:37.790Z,99767.48
2018-03-15T11:59:13.548Z,99752.85
2018-03-15T12:01:48.657Z,99747.52
2018-03-15T12:04:23.626Z,99745.62
2018-03-15T12:06:58.625Z,99736.94
2018-03-15T12:09:33.835Z,99739.84
2018-03-15T12:12:08.788Z,99737.13
2018-03-15T12:14:44.247Z,99734.53
2018-03-15T12:17:19.700Z,99727.66
2018-03-15T12:19:54.736Z,99730.34
2018-03-15T12:22:30.090Z,99717.24
2018-03-15T12:25:04.409Z,99706.90
2018-03-15T12:27:39.663Z,99716.83
2018-03-15T12:30:14.613Z,99716.52
2018-03-15T12:32:49.624Z,99700.63
2018-03-15T12:35:24.901Z,99710.98
2018-03-15T12:37:59.719Z,99701.33
2018-03-15T12:40:34.967Z,99716.63
2018-03-15T12:43:09.702Z,99698.95
2018-03-15T12:45:44.939Z,99708.72
2018-03-15T12:48:19.879Z,99700.08
2018-03-15T12:50:54.902Z,99687.66
2018-03-15T12:53:30.064Z,99690.00
2018-03-15T12:56:04.447Z,99693.61
2018-03-15T12:58:39.571Z,99686.26
2018-03-15T13:01:14.417Z,99688.44
2018-03-15T13:03:49.727Z,99682.02
2018-03-15T13:06:24.874Z,99666.37
2018-03-15T13:08:59.821Z,99674.15
2018-03-15T13:11:34.468Z,99669.29
2018-03-15T13:14:09.832Z,99668.08
2018-03-15T13:16:45.099Z,99655.20
2018-03-15T13:19:20.227Z,99641.17
2018-03-15T13:21:55.270Z,99622.83
2018-03-15T13:24:30.725Z,99615.91
2018-03-15T13:27:05.260Z,99638.05
2018-03-15T13:29:39.722Z,99635.70
2018-03-15T13:32:15.133Z,99637.32
2018-03-15T13:34:49.966Z,99621.66
2018-03-15T13:37:24.859Z,99633.72
2018-03-15T13:39:59.902Z,99622.59
2018-03-15T13:42:35.094Z,99603.66
2018-03-15T13:45:10.059Z,99610.18
2018-03-15T13:47:45.131Z,99630.27
2018-03-15T13:50:19.934Z,99612.49
2018-03-15T13:52:55.088Z,99609.61
2018-03-15T13:55:30.292Z,99593.47
2018-03-15T13:58:05.696Z,99623.42
2018-03-15T14:00:40.872Z,99609.25
2018-03-15T14:03:15.840Z,99609.97
2018-03-15T14:05:50.844Z,99608.41
2018-03-15T14:08:25.400Z,99607.48
2018-03-15T14:11:00.428Z,99612.17
2018-03-15T14:13:35.376Z,99607.56
2018-03-15T14:16:10.084Z,99605.83
2018-03-15T14:18:44.921Z,99598.63
2018-03-15T14:21:20.076Z,99599.09
2018-03-15T14:23:55.299Z,99613.23
2018-03-15T14:26:30.127Z,99605.00
2018-03-15T14:29:04.459Z,99617.66
2018-03-15T14:31:39.092Z,99628.92
2018-03-15T14:34:14.031Z,99626.38
2018-03-15T14:36:49.171Z,99613.28
2018-03-15T14:39:24.776Z,99620.35
2018-03-15T14:41:59.900Z,99610.94
2018-03-15T14:44:35.047Z,99606.63
2018-03-15T14:47:09.831Z,99584.28
2018-03-15T14:49:44.946Z,99596.38
2018-03-15T14:52:20.001Z,99598.58
2018-03-15T14:54:55.248Z,99597.48
2018-03-15T14:57:30.366Z,99596.84
2018-03-15T15:00:05.229Z,99596.66
2018-03-15T15:02:40.202Z,99602.16
2018-03-15T15:05:14.975Z,99598.48
2018-03-15T15:07:50.119Z,99603.84
2018-03-15T15:10:25.165Z,99616.46
2018-03-15T15:13:00.233Z,99609.82
2018-03-15T15:15:35.067Z,99610.58
2018-03-15T15:18:10.064Z,99617.39
2018-03-15T15:20:45.289Z,99612.30
2018-03-15T15:23:20.318Z,99608.33
2018-03-15T15:25:55.355Z,99622.92
2018-03-15T15:28:30.435Z,99619.91
2018-03-15T15:31:04.837Z,99624.86
2018-03-15T15:33:40.308Z,99622.80
2018-03-15T15:36:15.378Z,99611.95
2018-03-15T15:38:50.524Z,99617.11
2018-03-15T15:41:25.402Z,99603.36
2018-03-15T15:44:00.329Z,99610.80
2018-03-15T15:46:35.564Z,99604.86
2018-03-15T15:49:10.112Z,99601.30
2018-03-15T15:51:45.331Z,99593.91
2018-03-15T15:54:19.960Z,99595.87
2018-03-15T15:56:54.719Z,99600.80
2018-03-15T15:59:30.446Z,99609.61
2018-03-15T16:02:05.206Z,99604.09
2018-03-15T16:04:39.635Z,99589.81
2018-03-15T16:07:14.186Z,99596.50
2018-03-15T16:09:49.161Z,99595.13
2018-03-15T16:12:23.514Z,99604.19
2018-03-15T16:14:58.459Z,99598.60
2018-03-15T16:17:33.802Z,99610.55
2018-03-15T16:20:08.443Z,99605.80
2018-03-15T16:22:43.444Z,99603.48
2018-03-15T16:25:18.483Z,99607.00
2018-03-15T16:27:53.416Z,99602.61
2018-03-15T16:30:28.399Z,99599.05
2018-03-15T16:33:03.588Z,99595.05
2018-03-15T16:35:39.128Z,99590.45
2018-03-15T16:38:14.489Z,99598.17
2018-03-15T16:40:49.625Z,99598.85
2018-03-15T16:43:24.248Z,99588.73
2018-03-15T16:45:59.219Z,99598.36
2018-03-15T16:48:34.451Z,99580.77
2018-03-15T16:51:09.432Z,99608.77
2018-03-15T16:53:44.940Z,99604.40
2018-03-15T16:56:19.600Z,99600.97
2018-03-15T16:58:54.604Z,99613.19
2018-03-15T17:01:30.646Z,99622.06
2018-03-15T17:04:06.088Z,99609.53
2018-03-15T17:06:41.148Z,99626.20
2018-03-15T17:09:16.231Z,99626.33
2018-03-15T17:11:51.234Z,99629.38
2018-03-15T17:14:26.425Z,99618.77
2018-03-15T17:17:01.500Z,99625.38
2018-03-15T17:19:36.603Z,99630.61
2018-03-15T17:22:11.528Z,99632.78
2018-03-15T17:24:46.637Z,99646.08
2018-03-15T17:27:21.567Z,99633.60
2018-03-15T17:29:56.314Z,99651.06
2018-03-15T17:32:31.647Z,99647.96
2018-03-15T17:35:06.541Z,99663.05
2018-03-15T17:37:41.825Z,99662.98
2018-03-15T17:40:17.348Z,99661.72
2018-03-15T17:42:52.314Z,99668.41
2018-03-15T17:45:27.546Z,99673.97
2018-03-15T17:48:02.395Z,99686.15
2018-03-15T17:50:37.844Z,99680.49
2018-03-15T17:53:12.874Z,99686.15
2018-03-15T17:55:48.391Z,99683.54
2018-03-15T17:58:23.634Z,99683.27
2018-03-15T18:00:58.382Z,99692.53
2018-03-15T18:03:33.223Z,99681.89
2018-03-15T18:06:08.251Z,99693.87
2018-03-15T18:08:43.639Z,99697.45
2018-03-15T18:11:18.379Z,99681.08
2018-03-15T18:13:53.496Z,99683.85
2018-03-15T18:16:28.536Z,99695.58
2018-03-15T18:19:03.585Z,99689.37
2018-03-15T18:21:38.800Z,99689.72
2018-03-15T18:24:13.450Z,99696.21
2018-03-15T18:26:48.589Z,99693.97
2018-03-15T18:29:23.732Z,99694.60
2018-03-15T18:31:58.792Z,99697.32
2018-03-15T18:34:33.934Z,99689.84
2018-03-15T18:37:08.935Z,99701.79
2018-03-15T18:39:43.892Z,99707.66
2018-03-15T18:42:19.492Z,99699.41
2018-03-15T18:44:54.456Z,99713.28
2018-03-15T18:47:29.136Z,99717.45
2018-03-15T18:50:03.607Z,99714.77
2018-03-15T18:52:38.443Z,99712.37
2018-03-15T18:55:13.578Z,99706.97
2018-03-15T18:57:48.519Z,99712.69
2018-03-15T19:00:23.534Z,99706.02
2018-03-15T19:02:58.675Z,99718.82
2018-03-15T19:05:34.306Z,99695.69
2018-03-15T19:08:09.134Z,99700.41
2018-03-15T19:10:44.109Z,99708.17
2018-03-15T19:13:18.776Z,99707.36
2018-03-15T19:15:53.207Z,99725.81
2018-03-15T19:18:27.869Z,99720.88
2018-03-15T19:21:02.553Z,99729.35
2018-03-15T19:23:37.544Z,99726.90
2018-03-15T19:26:12.294Z,99721.89
2018-03-15T19:28:47.740Z,99731.52
2018-03-15T19:31:22.779Z,99745.84
2018-03-15T19:33:57.628Z,99749.47
2018-03-15T19:36:32.371Z,99756.20
2018-03-15T19:39:07.828Z,99755.80
2018-03-15T19:41:42.595Z,99755.52
2018-03-15T19:44:16.998Z,99765.39
2018-03-15T19:46:51.818Z,99777.94
2018-03-15T19:49:27.285Z,99770.16
2018-03-15T19:52:02.269Z,99771.99
2018-03-15T19:54:37.554Z,99769.78
2018-03-15T19:57:12.672Z,99772.09
2018-03-15T19:59:48.437Z,99764.73
2018-03-15T20:02:22.912Z,99780.34
2018-03-15T20:04:57.782Z,99779.32
2018-03-15T20:07:33.053Z,99777.41
2018-03-15T20:10:07.855Z,99776.08
2018-03-15T20:12:43.500Z,99778.07
2018-03-15T20:15:18.090Z,99772.39
2018-03-15T20:17:52.680Z,99771.47
2018-03-15T20:20:27.917Z,99758.73
2018-03-15T20:23:08.210Z,99749.20
2018-03-15T20:25:43.638Z,99734.66
2018-03-15T20:28:24.122Z,99732.51
2018-03-15T20:30:59.763Z,99731.93
2018-03-15T20:33:40.432Z,99729.33
2018-03-15T20:36:15.074Z,99723.94
2018-03-15T20:38:50.294Z,99740.95
2018-03-15T20:41:25.632Z,99744.95
2018-03-15T20:44:00.978Z,99744.08
2018-03-15T20:46:41.500Z,99739.45
2018-03-15T20:49:16.965Z,99747.63
2018-03-15T20:51:51.922Z,99740.96
2018-03-15T20:54:27.182Z,99744.06
2018-03-15T20:57:02.291Z,99736.84
2018-03-15T20:59:38.065Z,99728.27
2018-03-15T21:02:12.413Z,99751.83
2018-03-15T21:04:47.836Z,99739.37
2018-03-15T21:07:22.755Z,99743.45
2018-03-15T21:09:57.674Z,99733.17
2018-03-15T21:12:32.788Z,99734.63
2018-03-15T21:15:07.848Z,99733.23
2018-03-15T21:17:43.074Z,99734.30
2018-03-15T21:20:18.120Z,99730.19
2018-03-15T21:22:53.426Z,99729.47
2018-03-15T21:25:27.939Z,99727.37
2018-03-15T21:28:02.956Z,99727.64
2018-03-15T21:30:38.157Z,99735.84
2018-03-15T21:33:13.297Z,99733.98
2018-03-15T21:35:47.962Z,99737.94
2018-03-15T21:38:22.991Z,99735.91
2018-03-15T21:40:58.170Z,99737.09
2018-03-15T21:43:33.431Z,99733.12
2018-03-15T21:46:08.940Z,99726.83
2018-03-15T21:48:44.079Z,99732.14
2018-03-15T21:51:18.899Z,99728.86
2018-03-15T21:53:53.880Z,99738.83
2018-03-15T21:56:29.126Z,99742.11
2018-03-15T21:59:04.172Z,99733.30
2018-03-15T22:01:39.391Z,99729.42
2018-03-15T22:04:14.362Z,99740.98
2018-03-15T22:06:49.285Z,99731.53
2018-03-15T22:09:24.051Z,99739.15
2018-03-15T22:11:59.276Z,99718.20
2018-03-15T22:14:34.764Z,99729.04
2018-03-15T22:17:10.011Z,99732.41
2018-03-15T22:19:45.297Z,99737.61
2018-03-15T22:22:19.912Z,99737.03
2018-03-15T22:24:55.046Z,99727.53
2018-03-15T22:27:31.336Z,99716.92
2018-03-15T22:30:06.153Z,99731.39
2018-03-15T22:32:41.258Z,99723.07
2018-03-15T22:35:16.326Z,99726.69
2018-03-15T22:37:51.316Z,99732.08
2018-03-15T22:40:26.198Z,99727.77
2018-03-15T22:43:01.055Z,99726.75
2018-03-15T22:45:36.280Z,99719.85
2018-03-15T22:48:11.127Z,99728.08
2018-03-15T22:50:46.327Z,99720.14
2018-03-15T22:53:21.141Z,99730.89
2018-03-15T22:55:56.121Z,99732.78
2018-03-15T22:58:31.450Z,99726.64
2018-03-15T23:01:07.013Z,99729.09
2018-03-15T23:03:42.068Z,99729.85
2018-03-15T23:06:17.072Z,99713.42
2018-03-15T23:08:52.153Z,99732.28
2018-03-15T23:11:27.225Z,99730.89
2018-03-15T23:14:02.356Z,99735.13
2018-03-15T23:16:37.523Z,99736.16
2018-03-15T23:19:12.488Z,99728.55
2018-03-15T23:21:47.556Z,99729.88
2018-03-15T23:24:22.592Z,99733.94
2018-03-15T23:26:57.596Z,99729.23
2018-03-15T23:29:32.817Z,99733.56
2018-03-15T23:32:07.678Z,99721.25
2018-03-15T23:34:42.729Z,99734.58
2018-03-15T23:37:17.348Z,99731.01
2018-03-15T23:39:52.404Z,99742.25
2018-03-15T23:42:27.015Z,99739.59
2018-03-15T23:45:02.185Z,99734.69
2018-03-15T23:47:37.466Z,99745.88
2018-03-15T23:50:12.498Z,99732.98
2018-03-15T23:52:47.122Z,99731.53
2018-03-15T23:55:22.297Z,99737.48
2018-03-15T23:57:57.345Z,99736.92
